createdAt,value
2023-04-18T00:00:10.541Z,95.20
2023-04-18T00:02:44.020Z,95.20
2023-04-18T00:05:12.458Z,95.10
2023-04-18T00:07:39.695Z,95.10
2023-04-18T00:10:07.421Z,95.00
2023-04-18T00:12:34.380Z,95.10
2023-04-18T00:15:02.774Z,95.10
2023-04-18T00:17:31.749Z,95.10
2023-04-18T00:19:58.795Z,95.10
2023-04-18T00:22:25.820Z,95.20
2023-04-18T00:24:53.068Z,95.20
2023-04-18T00:27:20.824Z,95.20
2023-04-18T00:29:48.452Z,95.20
2023-04-18T00:32:17.376Z,95.20
2023-04-18T00:34:44.303Z,95.30
2023-04-18T00:37:12.688Z,95.40
2023-04-18T00:39:39.683Z,95.50
2023-04-18T00:42:06.728Z,95.40
2023-04-18T00:44:33.673Z,95.50
2023-04-18T00:47:00.570Z,95.50
2023-04-18T00:49:27.703Z,95.50
2023-04-18T00:51:56.900Z,95.60
2023-04-18T00:54:25.287Z,95.70
2023-04-18T00:56:52.244Z,95.70
2023-04-18T00:59:19.454Z,95.70
2023-04-18T01:01:47.161Z,95.70
2023-04-18T01:04:14.556Z,95.70
2023-04-18T01:06:43.970Z,95.70
2023-04-18T01:09:11.466Z,95.70
2023-04-18T01:11:38.356Z,95.60
2023-04-18T01:14:07.795Z,95.60
2023-04-18T01:16:37.077Z,95.60
2023-04-18T01:19:05.725Z,95.60
2023-04-18T01:21:36.101Z,95.70
2023-04-18T01:24:15.069Z,95.80
2023-04-18T01:26:45.291Z,96.10
2023-04-18T01:29:12.344Z,96.10
2023-04-18T01:31:40.718Z,96.20
2023-04-18T01:34:08.032Z,96.40
2023-04-18T01:36:37.723Z,96.70
2023-04-18T01:39:04.850Z,96.50
2023-04-18T01:41:32.870Z,96.50
2023-04-18T01:44:00.380Z,96.70
2023-04-18T01:46:28.159Z,97.30
2023-04-18T01:48:55.928Z,97.10
2023-04-18T01:51:22.817Z,97.30
2023-04-18T01:53:49.957Z,97.40
2023-04-18T01:56:16.877Z,97.50
2023-04-18T01:58:43.957Z,97.60
2023-04-18T02:01:12.618Z,97.50
2023-04-18T02:03:40.017Z,97.50
2023-04-18T02:06:07.219Z,97.60
2023-04-18T02:08:35.878Z,97.60
2023-04-18T02:11:05.434Z,97.50
2023-04-18T02:13:32.483Z,97.50
2023-04-18T02:15:59.445Z,97.60
2023-04-18T02:18:26.765Z,97.50
2023-04-18T02:20:53.730Z,97.50
2023-04-18T02:23:22.196Z,97.50
2023-04-18T02:25:49.148Z,97.50
2023-04-18T02:28:17.805Z,97.40
2023-04-18T02:30:44.855Z,97.40
2023-04-18T02:33:11.784Z,97.40
2023-04-18T02:35:38.917Z,97.30
2023-04-18T02:38:05.833Z,97.20
2023-04-18T02:40:32.779Z,97.20
2023-04-18T02:42:59.831Z,97.10
2023-04-18T02:45:26.786Z,97.10
2023-04-18T02:47:56.653Z,97.10
2023-04-18T02:50:25.070Z,97.00
2023-04-18T02:52:53.738Z,97.00
2023-04-18T02:55:22.689Z,96.90
2023-04-18T02:57:49.751Z,96.90
2023-04-18T03:00:36.989Z,96.80
2023-04-18T03:03:17.275Z,97.10
2023-04-18T03:05:58.602Z,96.70
2023-04-18T03:08:25.794Z,96.70
2023-04-18T03:10:54.199Z,96.70
2023-04-18T03:13:24.222Z,96.60
2023-04-18T03:15:51.519Z,96.60
2023-04-18T03:18:19.022Z,96.50
2023-04-18T03:20:46.346Z,96.50
2023-04-18T03:23:13.346Z,96.50
2023-04-18T03:25:40.237Z,96.40
2023-04-18T03:28:07.143Z,96.40
2023-04-18T03:30:34.877Z,96.30
2023-04-18T03:33:05.180Z,96.30
2023-04-18T03:35:32.478Z,96.30
2023-04-18T03:37:59.981Z,96.20
2023-04-18T03:40:33.372Z,96.10
2023-04-18T03:43:06.595Z,96.40
2023-04-18T03:45:33.576Z,96.00
2023-04-18T03:48:00.599Z,96.10
2023-04-18T03:50:29.015Z,96.00
2023-04-18T03:52:57.374Z,96.00
2023-04-18T03:55:26.232Z,96.10
2023-04-18T03:57:53.305Z,96.10
2023-04-18T04:00:26.788Z,96.10
2023-04-18T04:03:01.574Z,96.00
2023-04-18T04:05:28.746Z,96.00
2023-04-18T04:07:56.481Z,96.10
2023-04-18T04:10:23.708Z,96.10
2023-04-18T04:12:51.470Z,96.10
2023-04-18T04:15:18.729Z,96.10
2023-04-18T04:17:51.761Z,96.10
2023-04-18T04:20:24.080Z,96.10
2023-04-18T04:22:58.850Z,96.20
2023-04-18T04:25:29.766Z,96.10
2023-04-18T04:28:01.536Z,96.20
2023-04-18T04:30:29.332Z,96.10
2023-04-18T04:32:56.884Z,96.20
2023-04-18T04:35:23.938Z,96.20
2023-04-18T04:37:51.744Z,96.20
2023-04-18T04:40:25.563Z,96.30
2023-04-18T04:42:56.772Z,96.20
2023-04-18T04:45:30.212Z,96.20
2023-04-18T04:47:57.277Z,96.20
2023-04-18T04:50:24.166Z,96.20
2023-04-18T04:52:51.287Z,96.20
2023-04-18T04:55:18.879Z,96.20
2023-04-18T04:57:45.901Z,96.20
2023-04-18T05:00:31.069Z,96.20
2023-04-18T05:02:58.319Z,96.30
2023-04-18T05:05:26.865Z,96.20
2023-04-18T05:07:54.321Z,96.30
2023-04-18T05:10:21.682Z,96.30
2023-04-18T05:12:48.570Z,96.30
2023-04-18T05:15:16.557Z,96.30
2023-04-18T05:17:43.462Z,96.30
2023-04-18T05:20:11.390Z,96.30
2023-04-18T05:22:38.367Z,96.30
2023-04-18T05:25:06.288Z,96.30
2023-04-18T05:27:33.176Z,96.30
2023-04-18T05:30:00.063Z,96.30
2023-04-18T05:32:27.038Z,96.30
2023-04-18T05:34:53.927Z,96.30
2023-04-18T05:37:22.229Z,96.30
2023-04-18T05:39:49.118Z,96.40
2023-04-18T05:42:16.038Z,96.50
2023-04-18T05:44:42.944Z,96.40
2023-04-18T05:47:09.871Z,96.40
2023-04-18T05:49:36.816Z,96.30
2023-04-18T05:52:03.759Z,96.30
2023-04-18T05:54:30.716Z,96.30
2023-04-18T05:56:57.624Z,96.40
2023-04-18T05:59:26.801Z,96.40
2023-04-18T06:01:54.022Z,96.40
2023-04-18T06:04:21.698Z,96.40
2023-04-18T06:06:48.775Z,96.40
2023-04-18T06:09:15.668Z,96.30
2023-04-18T06:11:42.590Z,96.40
2023-04-18T06:14:09.499Z,96.40
2023-04-18T06:16:37.544Z,96.40
2023-04-18T06:19:05.244Z,96.30
2023-04-18T06:21:32.235Z,96.40
2023-04-18T06:24:01.222Z,96.30
2023-04-18T06:26:28.161Z,96.30
2023-04-18T06:28:55.060Z,96.30
2023-04-18T06:31:22.230Z,96.20
2023-04-18T06:33:49.154Z,96.20
2023-04-18T06:36:16.050Z,96.10
2023-04-18T06:38:42.967Z,96.10
2023-04-18T06:41:09.876Z,96.10
2023-04-18T06:43:36.818Z,96.00
2023-04-18T06:46:05.994Z,96.00
2023-04-18T06:48:33.205Z,96.00
2023-04-18T06:51:00.071Z,96.10
2023-04-18T06:53:27.013Z,96.10
2023-04-18T06:55:54.099Z,96.10
2023-04-18T06:58:21.011Z,95.90
2023-04-18T07:00:51.828Z,96.00
2023-04-18T07:03:19.061Z,95.90
2023-04-18T07:05:46.183Z,95.90
2023-04-18T07:08:13.137Z,95.90
2023-04-18T07:10:40.090Z,95.80
2023-04-18T07:13:06.973Z,95.90
2023-04-18T07:15:36.016Z,95.90
2023-04-18T07:18:02.942Z,95.80
2023-04-18T07:20:29.896Z,95.70
2023-04-18T07:22:56.817Z,95.70
2023-04-18T07:25:23.699Z,95.60
2023-04-18T07:27:50.581Z,95.30
2023-04-18T07:30:17.530Z,95.50
2023-04-18T07:32:44.835Z,95.60
2023-04-18T07:35:11.820Z,95.70
2023-04-18T07:37:38.766Z,95.40
2023-04-18T07:40:06.576Z,95.10
2023-04-18T07:42:33.480Z,95.00
2023-04-18T07:45:00.441Z,94.90
2023-04-18T07:47:29.958Z,94.50
2023-04-18T07:49:57.885Z,94.60
2023-04-18T07:52:24.830Z,94.40
2023-04-18T07:54:51.752Z,94.20
2023-04-18T07:57:18.633Z,93.90
2023-04-18T07:59:45.778Z,93.80
2023-04-18T08:02:12.679Z,93.90
2023-04-18T08:04:39.687Z,93.90
2023-04-18T08:07:06.622Z,93.70
2023-04-18T08:09:34.214Z,93.80
2023-04-18T08:12:01.143Z,93.70
2023-04-18T08:14:28.017Z,93.80
2023-04-18T08:16:54.964Z,93.80
2023-04-18T08:19:21.870Z,93.70
2023-04-18T08:21:51.162Z,93.80
2023-04-18T08:24:18.119Z,93.90
2023-04-18T08:26:45.246Z,93.80
2023-04-18T08:29:12.334Z,93.60
2023-04-18T08:31:40.221Z,93.60
2023-04-18T08:34:07.169Z,93.30
2023-04-18T08:36:35.487Z,93.50
2023-04-18T08:39:02.375Z,93.20
2023-04-18T08:41:34.941Z,93.10
2023-04-18T08:44:02.101Z,92.90
2023-04-18T08:46:30.115Z,92.90
2023-04-18T08:48:59.700Z,93.10
2023-04-18T08:51:32.545Z,93.10
2023-04-18T08:54:03.265Z,92.70
2023-04-18T08:56:30.870Z,92.80
2023-04-18T08:59:01.158Z,92.20
2023-04-18T09:01:56.301Z,91.90
2023-04-18T09:04:43.101Z,91.90
2023-04-18T09:07:15.829Z,92.20
2023-04-18T09:09:52.233Z,92.10
2023-04-18T09:12:25.425Z,91.50
2023-04-18T09:15:09.399Z,91.50
2023-04-18T09:17:51.287Z,91.80
2023-04-18T09:20:35.194Z,91.80
2023-04-18T09:23:11.209Z,92.10
2023-04-18T09:25:48.159Z,91.70
2023-04-18T09:28:31.787Z,91.60
2023-04-18T09:31:16.212Z,91.60
2023-04-18T09:33:56.658Z,91.80
2023-04-18T09:36:27.693Z,91.40
2023-04-18T09:38:57.064Z,91.50
2023-04-18T09:41:24.721Z,91.40
2023-04-18T09:44:12.528Z,91.00
2023-04-18T09:46:42.481Z,90.30
2023-04-18T09:49:11.097Z,90.00
2023-04-18T09:51:40.339Z,90.20
2023-04-18T09:54:09.371Z,89.90
2023-04-18T09:56:39.513Z,89.80
2023-04-18T09:59:11.343Z,89.60
2023-04-18T10:01:41.196Z,89.20
2023-04-18T10:04:08.809Z,89.40
2023-04-18T10:06:41.887Z,89.20
2023-04-18T10:09:10.114Z,89.60
2023-04-18T10:11:37.329Z,89.70
2023-04-18T10:14:10.000Z,88.90
2023-04-18T10:16:37.913Z,89.10
2023-04-18T10:19:28.316Z,89.10
2023-04-18T10:22:00.350Z,88.70
2023-04-18T10:24:49.631Z,88.50
2023-04-18T10:27:17.807Z,86.90
2023-04-18T10:29:52.765Z,86.50
2023-04-18T10:32:23.526Z,86.00
2023-04-18T10:34:53.361Z,86.00
2023-04-18T10:37:20.297Z,85.90
2023-04-18T10:40:00.924Z,85.60
2023-04-18T10:42:53.963Z,86.00
2023-04-18T10:45:25.611Z,85.00
2023-04-18T10:48:24.136Z,85.20
2023-04-18T10:51:17.909Z,85.00
2023-04-18T10:53:52.238Z,86.10
2023-04-18T10:56:19.277Z,85.30
2023-04-18T10:58:51.813Z,84.70
2023-04-18T11:01:38.197Z,85.50
2023-04-18T11:04:13.811Z,83.20
2023-04-18T11:06:57.268Z,82.80
2023-04-18T11:09:25.161Z,83.50
2023-04-18T11:12:10.549Z,82.70
2023-04-18T11:14:45.654Z,82.80
2023-04-18T11:17:26.448Z,81.80
2023-04-18T11:20:14.258Z,81.90
2023-04-18T11:22:50.231Z,81.60
2023-04-18T11:25:19.324Z,82.80
2023-04-18T11:27:51.465Z,83.20
2023-04-18T11:30:18.804Z,82.20
2023-04-18T11:32:45.787Z,82.60
2023-04-18T11:35:15.501Z,80.60
2023-04-18T11:37:45.334Z,80.10
2023-04-18T11:40:13.715Z,80.20
2023-04-18T11:42:41.885Z,79.20
2023-04-18T11:45:15.881Z,78.80
2023-04-18T11:47:44.842Z,78.70
2023-04-18T11:50:13.800Z,78.70
2023-04-18T11:52:42.510Z,79.80
2023-04-18T11:55:19.522Z,81.20
2023-04-18T11:58:00.450Z,80.90
2023-04-18T12:00:39.308Z,79.70
2023-04-18T12:03:15.616Z,77.90
2023-04-18T12:05:43.156Z,78.60
2023-04-18T12:08:19.559Z,78.80
2023-04-18T12:10:52.417Z,78.70
2023-04-18T12:13:25.671Z,78.60
2023-04-18T12:15:53.467Z,78.50
2023-04-18T12:18:20.474Z,77.90
2023-04-18T12:20:53.916Z,77.30
2023-04-18T12:23:42.411Z,77.90
2023-04-18T12:26:21.018Z,77.70
2023-04-18T12:28:51.209Z,76.90
2023-04-18T12:31:18.319Z,77.40
2023-04-18T12:33:45.263Z,78.30
2023-04-18T12:36:12.176Z,78.20
2023-04-18T12:38:39.065Z,77.80
2023-04-18T12:41:06.271Z,77.50
2023-04-18T12:43:33.183Z,77.20
2023-04-18T12:46:00.225Z,76.80
2023-04-18T12:48:28.002Z,75.90
2023-04-18T12:50:54.854Z,76.90
2023-04-18T12:53:21.914Z,76.60
2023-04-18T12:55:48.749Z,76.90
2023-04-18T12:58:18.507Z,76.70
2023-04-18T13:00:45.845Z,73.60
2023-04-18T13:03:13.377Z,75.50
2023-04-18T13:05:40.929Z,75.20
2023-04-18T13:08:17.218Z,76.10
2023-04-18T13:10:48.043Z,75.70
2023-04-18T13:13:14.995Z,74.60
2023-04-18T13:15:42.513Z,75.20
2023-04-18T13:18:09.483Z,76.00
2023-04-18T13:20:36.649Z,75.70
2023-04-18T13:23:03.886Z,75.70
2023-04-18T13:25:30.859Z,75.60
2023-04-18T13:27:58.516Z,76.20
2023-04-18T13:30:25.623Z,76.20
2023-04-18T13:32:52.607Z,77.10
2023-04-18T13:35:19.598Z,77.80
2023-04-18T13:37:46.486Z,78.30
2023-04-18T13:40:13.876Z,78.40
2023-04-18T13:42:41.058Z,78.30
2023-04-18T13:45:08.347Z,78.00
2023-04-18T13:47:35.844Z,77.80
2023-04-18T13:50:02.788Z,78.30
2023-04-18T13:52:29.757Z,76.70
2023-04-18T13:54:56.661Z,77.10
2023-04-18T13:57:23.636Z,76.90
2023-04-18T13:59:50.530Z,75.80
2023-04-18T14:02:17.640Z,76.30
2023-04-18T14:04:44.850Z,76.40
2023-04-18T14:07:11.839Z,76.70
2023-04-18T14:09:38.719Z,77.00
2023-04-18T14:12:06.011Z,77.90
2023-04-18T14:14:32.929Z,77.60
2023-04-18T14:16:59.819Z,76.50
2023-04-18T14:19:27.304Z,76.90
2023-04-18T14:21:54.258Z,77.10
2023-04-18T14:24:21.231Z,77.50
2023-04-18T14:26:48.201Z,76.90
2023-04-18T14:29:15.284Z,77.40
2023-04-18T14:31:42.408Z,77.40
2023-04-18T14:34:09.811Z,76.80
2023-04-18T14:36:37.244Z,76.90
2023-04-18T14:39:04.776Z,76.90
2023-04-18T14:41:31.747Z,77.60
2023-04-18T14:43:59.119Z,78.10
2023-04-18T14:46:28.206Z,78.60
2023-04-18T14:48:55.257Z,78.60
2023-04-18T14:51:23.206Z,78.90
2023-04-18T14:53:50.187Z,79.40
2023-04-18T14:56:20.901Z,79.80
2023-04-18T14:58:47.887Z,80.00
2023-04-18T15:01:14.856Z,79.90
2023-04-18T15:03:41.881Z,79.50
2023-04-18T15:06:08.869Z,77.80
2023-04-18T15:08:35.997Z,77.80
2023-04-18T15:11:07.989Z,77.40
2023-04-18T15:13:34.920Z,77.50
2023-04-18T15:16:02.033Z,76.30
2023-04-18T15:18:28.967Z,77.20
2023-04-18T15:20:56.963Z,77.30
2023-04-18T15:23:23.972Z,78.00
2023-04-18T15:25:50.912Z,78.10
2023-04-18T15:28:18.644Z,78.90
2023-04-18T15:30:46.334Z,79.80
2023-04-18T15:33:13.966Z,79.40
2023-04-18T15:35:40.910Z,79.30
2023-04-18T15:38:07.867Z,77.90
2023-04-18T15:40:36.226Z,77.50
2023-04-18T15:43:04.027Z,76.30
2023-04-18T15:45:31.269Z,75.60
2023-04-18T15:47:58.586Z,75.20
2023-04-18T15:50:26.094Z,73.40
2023-04-18T15:52:53.025Z,73.80
2023-04-18T15:55:19.925Z,74.50
2023-04-18T15:57:46.916Z,69.50
2023-04-18T16:00:17.558Z,69.20
2023-04-18T16:02:45.835Z,66.60
2023-04-18T16:05:13.291Z,63.80
2023-04-18T16:07:41.326Z,63.80
2023-04-18T16:10:10.519Z,64.80
2023-04-18T16:12:38.276Z,63.60
2023-04-18T16:15:07.069Z,62.80
2023-04-18T16:17:35.526Z,61.60
2023-04-18T16:20:02.633Z,61.90
2023-04-18T16:22:29.600Z,61.10
2023-04-18T16:24:56.574Z,60.60
2023-04-18T16:27:23.518Z,59.60
2023-04-18T16:29:50.582Z,60.30
2023-04-18T16:32:17.462Z,61.20
2023-04-18T16:34:44.362Z,61.10
2023-04-18T16:37:11.281Z,60.30
2023-04-18T16:39:38.209Z,61.20
2023-04-18T16:42:05.300Z,61.70
2023-04-18T16:44:33.145Z,60.70
2023-04-18T16:47:00.257Z,61.20
2023-04-18T16:49:27.331Z,59.80
2023-04-18T16:51:54.252Z,59.90
2023-04-18T16:54:21.212Z,60.20
2023-04-18T16:56:48.307Z,60.30
2023-04-18T16:59:15.280Z,59.50
2023-04-18T17:01:42.212Z,60.50
2023-04-18T17:04:09.165Z,59.20
2023-04-18T17:06:36.129Z,59.20
2023-04-18T17:09:06.168Z,59.10
2023-04-18T17:11:38.803Z,58.30
2023-04-18T17:14:08.030Z,58.90
2023-04-18T17:16:38.692Z,58.40
2023-04-18T17:19:06.438Z,57.50
2023-04-18T17:21:34.960Z,56.60
2023-04-18T17:24:03.928Z,56.60
2023-04-18T17:26:31.166Z,57.10
2023-04-18T17:28:58.165Z,57.90
2023-04-18T17:31:25.179Z,58.00
2023-04-18T17:33:52.143Z,58.60
2023-04-18T17:36:19.059Z,58.00
2023-04-18T17:38:48.918Z,58.80
2023-04-18T17:41:17.942Z,58.20
2023-04-18T17:43:45.871Z,57.80
2023-04-18T17:46:13.589Z,57.80
2023-04-18T17:48:41.267Z,58.50
2023-04-18T17:51:08.173Z,58.90
2023-04-18T17:53:35.088Z,59.30
2023-04-18T17:56:03.445Z,59.70
2023-04-18T17:58:30.476Z,60.20
2023-04-18T18:00:57.497Z,60.90
2023-04-18T18:03:24.617Z,61.40
2023-04-18T18:05:51.904Z,61.70
2023-04-18T18:08:18.794Z,62.30
2023-04-18T18:10:47.048Z,62.80
2023-04-18T18:13:13.991Z,63.40
2023-04-18T18:15:40.866Z,63.70
2023-04-18T18:18:07.848Z,64.10
2023-04-18T18:20:34.822Z,65.00
2023-04-18T18:23:02.270Z,65.40
2023-04-18T18:25:29.193Z,66.10
2023-04-18T18:27:56.108Z,66.90
2023-04-18T18:30:23.003Z,67.20
2023-04-18T18:32:49.908Z,67.90
2023-04-18T18:35:16.814Z,68.40
2023-04-18T18:37:43.733Z,68.90
2023-04-18T18:40:11.142Z,69.30
2023-04-18T18:42:38.070Z,70.30
2023-04-18T18:45:05.973Z,71.00
2023-04-18T18:47:34.153Z,71.70
2023-04-18T18:50:01.403Z,72.10
2023-04-18T18:52:29.684Z,72.50
2023-04-18T18:54:56.646Z,72.70
2023-04-18T18:57:23.549Z,72.90
2023-04-18T18:59:50.488Z,73.10
2023-04-18T19:02:17.568Z,73.80
2023-04-18T19:04:44.809Z,74.40
2023-04-18T19:07:11.776Z,74.50
2023-04-18T19:09:38.716Z,75.30
2023-04-18T19:12:06.157Z,76.00
2023-04-18T19:14:33.202Z,76.10
2023-04-18T19:17:00.274Z,76.20
2023-04-18T19:19:27.244Z,76.90
2023-04-18T19:21:54.147Z,77.70
2023-04-18T19:24:21.061Z,78.60
2023-04-18T19:26:48.053Z,78.50
2023-04-18T19:29:15.227Z,78.80
2023-04-18T19:31:43.590Z,79.20
2023-04-18T19:34:11.814Z,79.40
2023-04-18T19:36:38.758Z,79.70
2023-04-18T19:39:05.735Z,80.30
2023-04-18T19:41:32.627Z,80.70
2023-04-18T19:43:59.544Z,81.40
2023-04-18T19:46:26.834Z,81.50
2023-04-18T19:48:53.836Z,81.30
2023-04-18T19:51:20.742Z,81.40
2023-04-18T19:53:47.665Z,82.10
2023-04-18T19:56:14.945Z,81.70
2023-04-18T19:58:46.592Z,82.00
2023-04-18T20:01:21.264Z,82.10
2023-04-18T20:03:48.712Z,82.50
2023-04-18T20:06:17.102Z,83.60
2023-04-18T20:08:45.855Z,84.20
2023-04-18T20:11:16.634Z,84.40
2023-04-18T20:13:43.594Z,85.40
2023-04-18T20:16:12.154Z,85.80
2023-04-18T20:18:41.471Z,86.10
2023-04-18T20:21:10.020Z,86.80
2023-04-18T20:23:37.813Z,87.10
2023-04-18T20:26:04.880Z,86.60
2023-04-18T20:28:32.036Z,86.70
2023-04-18T20:30:59.106Z,87.00
2023-04-18T20:33:26.074Z,87.20
2023-04-18T20:35:54.535Z,87.40
2023-04-18T20:38:26.122Z,87.80
2023-04-18T20:40:54.152Z,87.60
2023-04-18T20:43:21.371Z,88.20
2023-04-18T20:45:51.525Z,89.10
2023-04-18T20:48:18.677Z,88.20
2023-04-18T20:50:51.154Z,87.70
2023-04-18T20:53:22.308Z,88.70
2023-04-18T20:55:49.439Z,88.40
2023-04-18T20:58:16.761Z,88.10
2023-04-18T21:00:44.590Z,88.20
2023-04-18T21:03:15.678Z,88.20
2023-04-18T21:05:44.633Z,88.30
2023-04-18T21:08:11.528Z,89.20
2023-04-18T21:10:38.586Z,88.60
2023-04-18T21:13:05.659Z,88.70
2023-04-18T21:15:32.654Z,88.90
2023-04-18T21:17:59.723Z,89.20
2023-04-18T21:20:26.850Z,89.60
2023-04-18T21:22:53.764Z,89.40
2023-04-18T21:25:21.293Z,89.10
2023-04-18T21:27:50.414Z,89.00
2023-04-18T21:30:17.439Z,88.80
2023-04-18T21:32:45.002Z,88.70
2023-04-18T21:35:11.941Z,88.40
2023-04-18T21:37:38.843Z,88.20
2023-04-18T21:40:06.898Z,88.10
2023-04-18T21:42:35.410Z,88.40
2023-04-18T21:45:02.504Z,88.20
2023-04-18T21:47:29.393Z,88.20
2023-04-18T21:49:56.337Z,88.30
2023-04-18T21:52:23.234Z,88.50
2023-04-18T21:54:50.247Z,88.60
2023-04-18T21:57:17.158Z,88.70
2023-04-18T21:59:44.036Z,88.80
2023-04-18T22:02:11.347Z,89.20
2023-04-18T22:04:42.571Z,89.20
2023-04-18T22:07:10.032Z,89.20
2023-04-18T22:09:37.076Z,89.20
2023-04-18T22:12:04.324Z,89.10
2023-04-18T22:14:32.231Z,89.20
2023-04-18T22:17:01.671Z,89.20
2023-04-18T22:19:29.372Z,89.30
2023-04-18T22:21:56.562Z,89.50
2023-04-18T22:24:24.559Z,89.40
2023-04-18T22:26:51.999Z,89.50
2023-04-18T22:29:18.883Z,89.50
2023-04-18T22:31:45.776Z,89.20
2023-04-18T22:34:12.771Z,89.20
2023-04-18T22:36:39.801Z,89.20
2023-04-18T22:39:07.333Z,89.20
2023-04-18T22:41:34.200Z,89.20
2023-04-18T22:44:01.072Z,89.30
2023-04-18T22:46:28.001Z,89.30
2023-04-18T22:48:55.151Z,89.20
2023-04-18T22:51:23.383Z,89.20
2023-04-18T22:53:50.388Z,89.20
2023-04-18T22:56:17.355Z,89.10
2023-04-18T22:58:44.232Z,89.10
2023-04-18T23:01:11.226Z,89.20
2023-04-18T23:03:38.357Z,89.20
2023-04-18T23:06:07.886Z,89.30
2023-04-18T23:08:34.914Z,89.40
2023-04-18T23:11:01.769Z,89.40
2023-04-18T23:13:28.649Z,89.40
2023-04-18T23:15:55.627Z,89.30
2023-04-18T23:18:22.508Z,89.40
2023-04-18T23:20:49.383Z,89.30
2023-04-18T23:23:16.257Z,89.30
2023-04-18T23:25:44.086Z,89.60
2023-04-18T23:28:11.028Z,89.40
2023-04-18T23:30:37.917Z,89.50
2023-04-18T23:33:04.903Z,89.50
2023-04-18T23:35:31.773Z,89.70
2023-04-18T23:37:58.747Z,89.90
2023-04-18T23:40:25.697Z,89.80
2023-04-18T23:42:52.571Z,89.80
2023-04-18T23:45:19.505Z,89.80
2023-04-18T23:47:46.513Z,89.80
2023-04-18T23:50:13.449Z,89.80
2023-04-18T23:52:40.555Z,89.80
2023-04-18T23:55:07.980Z,89.70
2023-04-18T23:57:34.880Z,89.80
